sensor_id;sensor_type;location;lat;lon;timestamp;pressure;altitude;pressure_sealevel;temperature;humidity
37852;BME280;23691;52.486;4.650;2023-04-04T00:01:59;103140.81;;;5.70;61.81
37852;BME280;23691;52.486;4.650;2023-04-04T00:04:26;103143.56;;;5.69;61.64
37852;BME280;23691;52.486;4.650;2023-04-04T00:06:52;103138.31;;;5.67;61.91
37852;BME280;23691;52.486;4.650;2023-04-04T00:09:17;103135.72;;;5.66;61.86
37852;BME280;23691;52.486;4.650;2023-04-04T00:11:43;103137.69;;;5.62;62.07
37852;BME280;23691;52.486;4.650;2023-04-04T00:14:09;103141.25;;;5.61;62.24
37852;BME280;23691;52.486;4.650;2023-04-04T00:16:34;103143.06;;;5.60;62.23
37852;BME280;23691;52.486;4.650;2023-04-04T00:19:03;103144.91;;;5.58;62.28
37852;BME280;23691;52.486;4.650;2023-04-04T00:21:28;103134.47;;;5.55;62.29
37852;BME280;23691;52.486;4.650;2023-04-04T00:23:57;103137.22;;;5.54;62.52
37852;BME280;23691;52.486;4.650;2023-04-04T00:26:24;103130.25;;;5.51;62.54
37852;BME280;23691;52.486;4.650;2023-04-04T00:28:51;103121.63;;;5.46;62.64
37852;BME280;23691;52.486;4.650;2023-04-04T00:31:17;103120.09;;;5.42;62.60
37852;BME280;23691;52.486;4.650;2023-04-04T00:33:43;103119.44;;;5.37;62.33
37852;BME280;23691;52.486;4.650;2023-04-04T00:36:09;103117.94;;;5.31;62.64
37852;BME280;23691;52.486;4.650;2023-04-04T00:38:35;103115.53;;;5.27;62.80
37852;BME280;23691;52.486;4.650;2023-04-04T00:41:01;103114.78;;;5.23;62.93
37852;BME280;23691;52.486;4.650;2023-04-04T00:43:28;103114.00;;;5.21;63.08
37852;BME280;23691;52.486;4.650;2023-04-04T00:45:53;103112.31;;;5.20;63.01
37852;BME280;23691;52.486;4.650;2023-04-04T00:48:19;103119.53;;;5.16;63.19
37852;BME280;23691;52.486;4.650;2023-04-04T00:50:45;103118.84;;;5.13;63.37
37852;BME280;23691;52.486;4.650;2023-04-04T00:53:10;103113.75;;;5.08;63.50
37852;BME280;23691;52.486;4.650;2023-04-04T00:55:39;103111.88;;;5.10;63.60
37852;BME280;23691;52.486;4.650;2023-04-04T00:58:04;103121.69;;;5.08;63.81
37852;BME280;23691;52.486;4.650;2023-04-04T01:00:33;103112.09;;;5.06;63.80
37852;BME280;23691;52.486;4.650;2023-04-04T01:02:59;103107.78;;;5.03;63.96
37852;BME280;23691;52.486;4.650;2023-04-04T01:05:24;103104.44;;;5.00;63.85
37852;BME280;23691;52.486;4.650;2023-04-04T01:07:50;103105.41;;;4.97;64.10
37852;BME280;23691;52.486;4.650;2023-04-04T01:10:16;103107.38;;;4.93;63.94
37852;BME280;23691;52.486;4.650;2023-04-04T01:12:41;103113.84;;;4.88;63.91
37852;BME280;23691;52.486;4.650;2023-04-04T01:15:07;103105.22;;;4.83;64.18
37852;BME280;23691;52.486;4.650;2023-04-04T01:17:33;103113.31;;;4.80;64.21
37852;BME280;23691;52.486;4.650;2023-04-04T01:20:05;103109.91;;;4.78;64.47
37852;BME280;23691;52.486;4.650;2023-04-04T01:22:31;103105.59;;;4.75;64.51
37852;BME280;23691;52.486;4.650;2023-04-04T01:24:59;103103.00;;;4.73;64.50
37852;BME280;23691;52.486;4.650;2023-04-04T01:27:25;103104.00;;;4.71;64.57
37852;BME280;23691;52.486;4.650;2023-04-04T01:29:51;103104.91;;;4.70;64.62
37852;BME280;23691;52.486;4.650;2023-04-04T01:32:27;103101.63;;;4.65;64.97
37852;BME280;23691;52.486;4.650;2023-04-04T01:40:31;103112.78;;;4.52;64.87
37852;BME280;23691;52.486;4.650;2023-04-04T01:42:59;103114.72;;;4.49;65.04
37852;BME280;23691;52.486;4.650;2023-04-04T01:45:25;103112.13;;;4.47;64.92
37852;BME280;23691;52.486;4.650;2023-04-04T01:47:50;103115.88;;;4.43;65.19
37852;BME280;23691;52.486;4.650;2023-04-04T01:50:16;103107.03;;;4.43;65.05
37852;BME280;23691;52.486;4.650;2023-04-04T01:52:41;103109.78;;;4.41;64.75
37852;BME280;23691;52.486;4.650;2023-04-04T01:55:07;103102.88;;;4.37;64.95
37852;BME280;23691;52.486;4.650;2023-04-04T01:57:32;103103.03;;;4.34;65.08
37852;BME280;23691;52.486;4.650;2023-04-04T01:59:58;103106.59;;;4.33;65.28
37852;BME280;23691;52.486;4.650;2023-04-04T02:02:23;103103.19;;;4.31;65.26
37852;BME280;23691;52.486;4.650;2023-04-04T02:04:48;103098.94;;;4.27;65.15
37852;BME280;23691;52.486;4.650;2023-04-04T02:07:14;103100.94;;;4.22;65.26
37852;BME280;23691;52.486;4.650;2023-04-04T02:09:40;103101.06;;;4.19;65.42
37852;BME280;23691;52.486;4.650;2023-04-04T02:12:06;103095.81;;;4.17;65.15
37852;BME280;23691;52.486;4.650;2023-04-04T02:14:32;103089.66;;;4.17;65.34
37852;BME280;23691;52.486;4.650;2023-04-04T02:16:58;103093.22;;;4.16;65.51
37852;BME280;23691;52.486;4.650;2023-04-04T02:19:24;103099.53;;;4.13;65.51
37852;BME280;23691;52.486;4.650;2023-04-04T02:21:50;103097.81;;;4.12;65.31
37852;BME280;23691;52.486;4.650;2023-04-04T02:24:15;103090.88;;;4.09;65.75
37852;BME280;23691;52.486;4.650;2023-04-04T02:26:41;103096.97;;;4.12;65.56
37852;BME280;23691;52.486;4.650;2023-04-04T02:29:06;103095.16;;;4.12;65.97
37852;BME280;23691;52.486;4.650;2023-04-04T02:31:32;103092.66;;;4.09;65.77
37852;BME280;23691;52.486;4.650;2023-04-04T02:33:58;103090.22;;;4.04;65.84
37852;BME280;23691;52.486;4.650;2023-04-04T02:36:23;103091.22;;;4.02;66.07
37852;BME280;23691;52.486;4.650;2023-04-04T02:38:48;103092.91;;;4.03;65.59
37852;BME280;23691;52.486;4.650;2023-04-04T02:41:14;103088.56;;;4.02;65.75
37852;BME280;23691;52.486;4.650;2023-04-04T02:43:39;103096.56;;;4.00;65.69
37852;BME280;23691;52.486;4.650;2023-04-04T02:46:04;103093.09;;;3.98;65.74
37852;BME280;23691;52.486;4.650;2023-04-04T02:48:30;103084.38;;;3.96;65.61
37852;BME280;23691;52.486;4.650;2023-04-04T02:50:55;103087.16;;;3.93;65.67
37852;BME280;23691;52.486;4.650;2023-04-04T02:53:21;103088.91;;;3.94;65.80
37852;BME280;23691;52.486;4.650;2023-04-04T02:55:46;103092.44;;;3.93;65.76
37852;BME280;23691;52.486;4.650;2023-04-04T02:58:12;103095.28;;;3.88;65.87
37852;BME280;23691;52.486;4.650;2023-04-04T03:00:37;103089.22;;;3.86;66.24
37852;BME280;23691;52.486;4.650;2023-04-04T03:03:03;103091.88;;;3.86;66.09
37852;BME280;23691;52.486;4.650;2023-04-04T03:05:29;103091.06;;;3.84;65.90
37852;BME280;23691;52.486;4.650;2023-04-04T03:07:56;103097.22;;;3.85;66.09
37852;BME280;23691;52.486;4.650;2023-04-04T03:10:23;103087.63;;;3.82;66.31
37852;BME280;23691;52.486;4.650;2023-04-04T03:12:48;103085.97;;;3.80;66.04
37852;BME280;23691;52.486;4.650;2023-04-04T03:15:14;103088.75;;;3.77;66.57
37852;BME280;23691;52.486;4.650;2023-04-04T03:17:39;103079.22;;;3.73;66.34
37852;BME280;23691;52.486;4.650;2023-04-04T03:20:06;103078.41;;;3.71;66.26
37852;BME280;23691;52.486;4.650;2023-04-04T03:22:31;103077.63;;;3.69;66.30
37852;BME280;23691;52.486;4.650;2023-04-04T03:24:56;103087.41;;;3.66;66.23
37852;BME280;23691;52.486;4.650;2023-04-04T03:27:22;103084.09;;;3.61;66.56
37852;BME280;23691;52.486;4.650;2023-04-04T03:29:47;103084.19;;;3.60;66.76
37852;BME280;23691;52.486;4.650;2023-04-04T03:32:13;103088.63;;;3.59;66.67
37852;BME280;23691;52.486;4.650;2023-04-04T03:34:38;103083.38;;;3.58;66.86
37852;BME280;23691;52.486;4.650;2023-04-04T03:37:03;103091.25;;;3.59;66.95
37852;BME280;23691;52.486;4.650;2023-04-04T03:39:29;103092.31;;;3.55;67.04
37852;BME280;23691;52.486;4.650;2023-04-04T03:41:55;103090.56;;;3.54;67.05
37852;BME280;23691;52.486;4.650;2023-04-04T03:44:22;103091.50;;;3.53;67.03
37852;BME280;23691;52.486;4.650;2023-04-04T03:46:47;103088.06;;;3.51;67.11
37852;BME280;23691;52.486;4.650;2023-04-04T03:49:12;103096.94;;;3.50;67.13
37852;BME280;23691;52.486;4.650;2023-04-04T03:51:38;103086.47;;;3.47;67.23
37852;BME280;23691;52.486;4.650;2023-04-04T03:54:03;103092.81;;;3.43;67.04
37852;BME280;23691;52.486;4.650;2023-04-04T03:56:29;103088.44;;;3.42;67.33
37852;BME280;23691;52.486;4.650;2023-04-04T03:58:56;103094.59;;;3.42;67.43
37852;BME280;23691;52.486;4.650;2023-04-04T04:01:27;103084.75;;;3.46;67.38
37852;BME280;23691;52.486;4.650;2023-04-04T04:03:52;103086.66;;;3.42;67.04
37852;BME280;23691;52.486;4.650;2023-04-04T04:06:17;103083.22;;;3.40;67.23
37852;BME280;23691;52.486;4.650;2023-04-04T04:08:43;103086.09;;;3.34;67.33
37852;BME280;23691;52.486;4.650;2023-04-04T04:11:08;103081.94;;;3.29;67.12
37852;BME280;23691;52.486;4.650;2023-04-04T04:13:34;103079.41;;;3.26;67.33
37852;BME280;23691;52.486;4.650;2023-04-04T04:16:04;103080.41;;;3.23;67.51
37852;BME280;23691;52.486;4.650;2023-04-04T04:18:30;103070.81;;;3.20;67.65
37852;BME280;23691;52.486;4.650;2023-04-04T04:20:57;103082.41;;;3.16;67.66
37852;BME280;23691;52.486;4.650;2023-04-04T04:23:27;103082.59;;;3.12;67.54
37852;BME280;23691;52.486;4.650;2023-04-04T04:25:52;103080.88;;;3.11;67.22
37852;BME280;23691;52.486;4.650;2023-04-04T04:28:18;103074.84;;;3.07;67.68
37852;BME280;23691;52.486;4.650;2023-04-04T04:30:43;103085.44;;;3.07;67.34
37852;BME280;23691;52.486;4.650;2023-04-04T04:33:09;103081.06;;;3.06;67.72
37852;BME280;23691;52.486;4.650;2023-04-04T04:35:35;103079.31;;;3.05;67.80
37852;BME280;23691;52.486;4.650;2023-04-04T04:38:02;103078.47;;;3.05;67.74
37852;BME280;23691;52.486;4.650;2023-04-04T04:40:28;103083.91;;;3.01;67.24
37852;BME280;23691;52.486;4.650;2023-04-04T04:42:53;103083.09;;;2.99;67.57
37852;BME280;23691;52.486;4.650;2023-04-04T04:45:19;103089.31;;;2.98;67.74
37852;BME280;23691;52.486;4.650;2023-04-04T04:47:44;103084.03;;;2.98;68.07
37852;BME280;23691;52.486;4.650;2023-04-04T04:50:10;103087.66;;;2.96;67.54
37852;BME280;23691;52.486;4.650;2023-04-04T04:52:36;103085.06;;;2.94;67.70
37852;BME280;23691;52.486;4.650;2023-04-04T04:55:02;103091.28;;;2.93;67.74
37852;BME280;23691;52.486;4.650;2023-04-04T04:57:28;103091.28;;;2.93;67.86
37852;BME280;23691;52.486;4.650;2023-04-04T04:59:53;103096.66;;;2.90;68.14
37852;BME280;23691;52.486;4.650;2023-04-04T05:02:22;103095.88;;;2.88;68.10
37852;BME280;23691;52.486;4.650;2023-04-04T05:04:47;103100.38;;;2.86;67.88
37852;BME280;23691;52.486;4.650;2023-04-04T05:07:13;103113.63;;;2.85;68.24
37852;BME280;23691;52.486;4.650;2023-04-04T05:09:38;103111.84;;;2.85;68.40
37852;BME280;23691;52.486;4.650;2023-04-04T05:12:03;103113.75;;;2.82;68.47
37852;BME280;23691;52.486;4.650;2023-04-04T05:14:29;103107.63;;;2.81;68.43
37852;BME280;23691;52.486;4.650;2023-04-04T05:16:54;103099.78;;;2.78;68.61
37852;BME280;23691;52.486;4.650;2023-04-04T05:19:20;103110.44;;;2.76;68.22
37852;BME280;23691;52.486;4.650;2023-04-04T05:21:45;103099.97;;;2.73;68.40
37852;BME280;23691;52.486;4.650;2023-04-04T05:24:11;103102.63;;;2.73;68.17
37852;BME280;23691;52.486;4.650;2023-04-04T05:26:37;103103.53;;;2.72;68.43
37852;BME280;23691;52.486;4.650;2023-04-04T05:29:02;103108.81;;;2.72;68.41
37852;BME280;23691;52.486;4.650;2023-04-04T05:31:28;103099.03;;;2.74;68.46
37852;BME280;23691;52.486;4.650;2023-04-04T05:33:53;103094.75;;;2.72;68.62
37852;BME280;23691;52.486;4.650;2023-04-04T05:36:18;103095.69;;;2.71;68.33
37852;BME280;23691;52.486;4.650;2023-04-04T05:38:44;103104.56;;;2.68;68.31
37852;BME280;23691;52.486;4.650;2023-04-04T05:41:09;103099.22;;;2.70;68.33
37852;BME280;23691;52.486;4.650;2023-04-04T05:43:34;103108.81;;;2.72;68.50
37852;BME280;23691;52.486;4.650;2023-04-04T05:46:00;103100.88;;;2.72;68.70
37852;BME280;23691;52.486;4.650;2023-04-04T05:48:25;103101.66;;;2.76;68.78
37852;BME280;23691;52.486;4.650;2023-04-04T05:50:51;103094.44;;;2.79;68.53
37852;BME280;23691;52.486;4.650;2023-04-04T05:53:16;103091.63;;;2.84;68.74
37852;BME280;23691;52.486;4.650;2023-04-04T05:55:42;103094.94;;;2.89;68.51
37852;BME280;23691;52.486;4.650;2023-04-04T05:58:07;103089.53;;;2.92;68.36
37852;BME280;23691;52.486;4.650;2023-04-04T06:00:33;103088.50;;;2.96;68.16
37852;BME280;23691;52.486;4.650;2023-04-04T06:02:58;103083.91;;;3.01;68.75
37852;BME280;23691;52.486;4.650;2023-04-04T06:05:24;103092.56;;;3.05;68.83
37852;BME280;23691;52.486;4.650;2023-04-04T06:07:50;103095.09;;;3.08;68.80
37852;BME280;23691;52.486;4.650;2023-04-04T06:10:15;103087.88;;;3.12;68.56
37852;BME280;23691;52.486;4.650;2023-04-04T06:12:40;103094.84;;;3.14;68.69
37852;BME280;23691;52.486;4.650;2023-04-04T06:15:06;103087.56;;;3.19;68.44
37852;BME280;23691;52.486;4.650;2023-04-04T06:17:32;103087.47;;;3.22;68.41
37852;BME280;23691;52.486;4.650;2023-04-04T06:19:57;103084.63;;;3.27;68.58
37852;BME280;23691;52.486;4.650;2023-04-04T06:22:23;103082.66;;;3.32;68.49
37852;BME280;23691;52.486;4.650;2023-04-04T06:24:48;103078.06;;;3.37;68.67
37852;BME280;23691;52.486;4.650;2023-04-04T06:27:13;103085.72;;;3.43;68.52
37852;BME280;23691;52.486;4.650;2023-04-04T06:29:39;103090.69;;;3.51;68.65
37852;BME280;23691;52.486;4.650;2023-04-04T06:32:05;103087.81;;;3.57;68.66
37852;BME280;23691;52.486;4.650;2023-04-04T06:34:31;103088.19;;;3.69;68.92
37852;BME280;23691;52.486;4.650;2023-04-04T06:36:57;103088.69;;;3.78;68.78
37852;BME280;23691;52.486;4.650;2023-04-04T06:39:23;103093.25;;;3.95;68.53
37852;BME280;23691;52.486;4.650;2023-04-04T06:41:48;103091.72;;;4.10;68.46
37852;BME280;23691;52.486;4.650;2023-04-04T06:44:14;103089.38;;;4.23;68.62
37852;BME280;23691;52.486;4.650;2023-04-04T06:46:39;103096.78;;;4.35;68.48
37852;BME280;23691;52.486;4.650;2023-04-04T06:49:05;103101.47;;;4.49;68.76
37852;BME280;23691;52.486;4.650;2023-04-04T06:51:32;103104.72;;;4.56;68.57
37852;BME280;23691;52.486;4.650;2023-04-04T06:53:59;103104.28;;;4.65;68.57
37852;BME280;23691;52.486;4.650;2023-04-04T06:56:25;103105.66;;;4.73;68.38
37852;BME280;23691;52.486;4.650;2023-04-04T06:58:51;103108.75;;;4.83;68.53
37852;BME280;23691;52.486;4.650;2023-04-04T07:01:17;103114.31;;;4.96;68.05
37852;BME280;23691;52.486;4.650;2023-04-04T07:03:42;103108.59;;;5.05;68.16
37852;BME280;23691;52.486;4.650;2023-04-04T07:06:28;103109.00;;;5.15;68.27
37852;BME280;23691;52.486;4.650;2023-04-04T07:08:54;103110.28;;;5.25;67.96
37852;BME280;23691;52.486;4.650;2023-04-04T07:11:20;103101.78;;;5.36;67.95
37852;BME280;23691;52.486;4.650;2023-04-04T07:13:47;103114.38;;;5.50;67.68
37852;BME280;23691;52.486;4.650;2023-04-04T07:16:13;103112.28;;;5.56;67.64
37852;BME280;23691;52.486;4.650;2023-04-04T07:18:38;103117.00;;;5.69;67.37
37852;BME280;23691;52.486;4.650;2023-04-04T07:21:04;103111.81;;;5.83;67.29
37852;BME280;23691;52.486;4.650;2023-04-04T07:23:29;103110.19;;;5.98;66.92
37852;BME280;23691;52.486;4.650;2023-04-04T07:25:55;103108.81;;;6.08;66.64
37852;BME280;23691;52.486;4.650;2023-04-04T07:28:21;103105.34;;;6.23;66.23
37852;BME280;23691;52.486;4.650;2023-04-04T07:30:47;103107.34;;;6.36;65.94
37852;BME280;23691;52.486;4.650;2023-04-04T07:33:12;103111.16;;;6.48;65.50
37852;BME280;23691;52.486;4.650;2023-04-04T07:35:37;103106.34;;;6.54;65.01
37852;BME280;23691;52.486;4.650;2023-04-04T07:38:03;103109.31;;;6.65;64.53
37852;BME280;23691;52.486;4.650;2023-04-04T07:40:28;103112.31;;;6.75;64.14
37852;BME280;23691;52.486;4.650;2023-04-04T07:42:54;103098.22;;;6.89;63.57
37852;BME280;23691;52.486;4.650;2023-04-04T07:45:19;103101.25;;;6.99;62.91
37852;BME280;23691;52.486;4.650;2023-04-04T07:47:46;103101.59;;;7.08;62.27
37852;BME280;23691;52.486;4.650;2023-04-04T07:50:12;103097.47;;;7.19;61.62
37852;BME280;23691;52.486;4.650;2023-04-04T07:52:38;103098.22;;;7.21;60.58
37852;BME280;23691;52.486;4.650;2023-04-04T07:55:04;103093.41;;;7.27;60.30
37852;BME280;23691;52.486;4.650;2023-04-04T07:57:31;103086.72;;;7.36;59.56
37852;BME280;23691;52.486;4.650;2023-04-04T07:59:57;103082.56;;;7.46;58.71
37852;BME280;23691;52.486;4.650;2023-04-04T08:02:22;103083.56;;;7.60;58.53
37852;BME280;23691;52.486;4.650;2023-04-04T08:04:48;103080.28;;;7.70;57.94
37852;BME280;23691;52.486;4.650;2023-04-04T08:07:13;103084.41;;;7.90;57.46
37852;BME280;23691;52.486;4.650;2023-04-04T08:09:38;103079.84;;;8.07;56.87
37852;BME280;23691;52.486;4.650;2023-04-04T08:12:04;103084.25;;;8.22;56.25
37852;BME280;23691;52.486;4.650;2023-04-04T08:14:33;103072.63;;;8.37;54.88
37852;BME280;23691;52.486;4.650;2023-04-04T08:16:58;103085.81;;;8.55;54.07
37852;BME280;23691;52.486;4.650;2023-04-04T08:19:23;103085.13;;;8.66;53.47
37852;BME280;23691;52.486;4.650;2023-04-04T08:21:49;103075.69;;;8.74;52.03
37852;BME280;23691;52.486;4.650;2023-04-04T08:24:15;103071.56;;;8.83;51.62
37852;BME280;23691;52.486;4.650;2023-04-04T08:26:41;103070.75;;;8.95;51.50
37852;BME280;23691;52.486;4.650;2023-04-04T08:29:07;103071.78;;;9.07;51.09
37852;BME280;23691;52.486;4.650;2023-04-04T08:31:33;103066.78;;;9.15;50.71
37852;BME280;23691;52.486;4.650;2023-04-04T08:33:59;103059.69;;;9.29;49.92
37852;BME280;23691;52.486;4.650;2023-04-04T08:36:26;103060.47;;;9.43;49.36
37852;BME280;23691;52.486;4.650;2023-04-04T08:38:52;103052.91;;;9.50;48.33
37852;BME280;23691;52.486;4.650;2023-04-04T08:41:18;103053.47;;;9.55;48.13
37852;BME280;23691;52.486;4.650;2023-04-04T08:43:45;103058.06;;;9.66;47.94
37852;BME280;23691;52.486;4.650;2023-04-04T08:46:21;103063.09;;;9.71;46.91
37852;BME280;23691;52.486;4.650;2023-04-04T08:48:49;103053.78;;;9.63;45.59
37852;BME280;23691;52.486;4.650;2023-04-04T08:51:18;103053.47;;;9.68;45.71
37852;BME280;23691;52.486;4.650;2023-04-04T08:53:44;103058.69;;;9.70;45.52
37852;BME280;23691;52.486;4.650;2023-04-04T08:56:10;103057.09;;;9.67;45.64
37852;BME280;23691;52.486;4.650;2023-04-04T08:58:36;103059.16;;;9.76;45.36
37852;BME280;23691;52.486;4.650;2023-04-04T09:01:04;103058.19;;;9.77;44.90
37852;BME280;23691;52.486;4.650;2023-04-04T09:03:32;103055.75;;;9.87;44.90
37852;BME280;23691;52.486;4.650;2023-04-04T09:05:58;103057.75;;;9.96;44.75
37852;BME280;23691;52.486;4.650;2023-04-04T09:08:24;103057.13;;;10.05;44.71
37852;BME280;23691;52.486;4.650;2023-04-04T09:10:51;103051.69;;;10.07;44.47
37852;BME280;23691;52.486;4.650;2023-04-04T09:13:17;103061.41;;;10.08;43.99
37852;BME280;23691;52.486;4.650;2023-04-04T09:15:46;103062.25;;;10.21;43.92
37852;BME280;23691;52.486;4.650;2023-04-04T09:18:11;103062.16;;;10.36;43.93
37852;BME280;23691;52.486;4.650;2023-04-04T09:20:42;103060.13;;;10.52;44.14
37852;BME280;23691;52.486;4.650;2023-04-04T09:25:36;103066.72;;;10.72;43.34
37852;BME280;23691;52.486;4.650;2023-04-04T09:28:04;103059.53;;;10.72;43.27
37852;BME280;23691;52.486;4.650;2023-04-04T09:30:31;103063.59;;;10.78;43.44
37852;BME280;23691;52.486;4.650;2023-04-04T09:33:03;103060.13;;;10.89;43.28
37852;BME280;23691;52.486;4.650;2023-04-04T09:35:31;103053.94;;;10.88;43.13
37852;BME280;23691;52.486;4.650;2023-04-04T09:37:57;103057.69;;;10.86;43.13
37852;BME280;23691;52.486;4.650;2023-04-04T09:40:22;103050.59;;;10.85;43.32
37852;BME280;23691;52.486;4.650;2023-04-04T09:42:52;103057.53;;;10.87;43.31
37852;BME280;23691;52.486;4.650;2023-04-04T09:45:18;103059.78;;;10.93;43.33
37852;BME280;23691;52.486;4.650;2023-04-04T09:47:43;103055.53;;;10.91;43.41
37852;BME280;23691;52.486;4.650;2023-04-04T09:50:20;103057.78;;;10.84;43.45
37852;BME280;23691;52.486;4.650;2023-04-04T09:52:48;103057.78;;;10.84;43.51
37852;BME280;23691;52.486;4.650;2023-04-04T09:55:13;103062.91;;;10.87;43.25
37852;BME280;23691;52.486;4.650;2023-04-04T09:57:39;103055.06;;;10.97;43.69
37852;BME280;23691;52.486;4.650;2023-04-04T10:00:06;103059.97;;;11.03;43.26
37852;BME280;23691;52.486;4.650;2023-04-04T10:02:39;103062.50;;;11.05;43.18
37852;BME280;23691;52.486;4.650;2023-04-04T10:05:11;103058.13;;;11.04;43.02
37852;BME280;23691;52.486;4.650;2023-04-04T10:07:38;103055.06;;;10.97;42.64
37852;BME280;23691;52.486;4.650;2023-04-04T10:10:07;103052.38;;;10.97;42.59
37852;BME280;23691;52.486;4.650;2023-04-04T10:12:36;103053.13;;;10.99;42.27
37852;BME280;23691;52.486;4.650;2023-04-04T10:15:02;103056.97;;;11.08;42.52
37852;BME280;23691;52.486;4.650;2023-04-04T10:17:36;103051.53;;;11.21;42.40
37852;BME280;23691;52.486;4.650;2023-04-04T10:20:03;103052.06;;;11.37;42.12
37852;BME280;23691;52.486;4.650;2023-04-04T10:22:31;103054.06;;;11.46;41.77
37852;BME280;23691;52.486;4.650;2023-04-04T10:24:58;103048.75;;;11.57;41.54
37852;BME280;23691;52.486;4.650;2023-04-04T10:27:24;103037.78;;;11.60;41.07
37852;BME280;23691;52.486;4.650;2023-04-04T10:29:50;103041.44;;;11.59;40.71
37852;BME280;23691;52.486;4.650;2023-04-04T10:32:45;103031.97;;;11.67;40.87
37852;BME280;23691;52.486;4.650;2023-04-04T10:35:09;103037.56;;;11.75;41.22
37852;BME280;23691;52.486;4.650;2023-04-04T10:37:53;103036.91;;;11.95;41.55
37852;BME280;23691;52.486;4.650;2023-04-04T10:40:23;103028.84;;;11.95;41.27
37852;BME280;23691;52.486;4.650;2023-04-04T10:42:52;103028.50;;;12.00;41.15
37852;BME280;23691;52.486;4.650;2023-04-04T10:45:19;103024.47;;;11.94;40.82
37852;BME280;23691;52.486;4.650;2023-04-04T10:47:45;103019.84;;;11.96;40.81
37852;BME280;23691;52.486;4.650;2023-04-04T10:50:14;103007.53;;;12.05;41.02
37852;BME280;23691;52.486;4.650;2023-04-04T10:52:40;103008.88;;;11.99;40.04
37852;BME280;23691;52.486;4.650;2023-04-04T10:55:09;103017.09;;;11.85;40.58
37852;BME280;23691;52.486;4.650;2023-04-04T10:57:36;103004.34;;;12.00;40.88
37852;BME280;23691;52.486;4.650;2023-04-04T11:02:58;103001.06;;;12.19;40.89
37852;BME280;23691;52.486;4.650;2023-04-04T11:05:26;102997.03;;;12.36;40.91
37852;BME280;23691;52.486;4.650;2023-04-04T11:10:32;102994.03;;;12.73;40.65
37852;BME280;23691;52.486;4.650;2023-04-04T11:13:01;102998.41;;;12.85;40.13
37852;BME280;23691;52.486;4.650;2023-04-04T11:18:10;102983.97;;;12.86;40.30
37852;BME280;23691;52.486;4.650;2023-04-04T11:20:40;102995.53;;;12.98;40.40
37852;BME280;23691;52.486;4.650;2023-04-04T11:23:14;102987.97;;;12.92;39.62
37852;BME280;23691;52.486;4.650;2023-04-04T11:25:48;103002.69;;;12.76;39.56
37852;BME280;23691;52.486;4.650;2023-04-04T11:28:42;102983.06;;;12.64;39.63
37852;BME280;23691;52.486;4.650;2023-04-04T11:34:14;102980.25;;;12.55;38.86
37852;BME280;23691;52.486;4.650;2023-04-04T11:39:27;102979.69;;;12.51;38.76
37852;BME280;23691;52.486;4.650;2023-04-04T11:44:22;102972.25;;;12.43;39.04
37852;BME280;23691;52.486;4.650;2023-04-04T11:46:54;102968.31;;;12.59;39.24
37852;BME280;23691;52.486;4.650;2023-04-04T11:49:24;102966.22;;;12.62;39.21
37852;BME280;23691;52.486;4.650;2023-04-04T11:51:50;102956.56;;;12.71;38.93
37852;BME280;23691;52.486;4.650;2023-04-04T11:54:16;102955.50;;;12.95;39.37
37852;BME280;23691;52.486;4.650;2023-04-04T11:56:43;102951.56;;;12.99;38.91
37852;BME280;23691;52.486;4.650;2023-04-04T11:59:12;102941.66;;;12.99;39.24
37852;BME280;23691;52.486;4.650;2023-04-04T12:01:38;102950.13;;;13.16;39.18
37852;BME280;23691;52.486;4.650;2023-04-04T12:04:04;102958.06;;;13.17;38.87
37852;BME280;23691;52.486;4.650;2023-04-04T12:06:30;102949.97;;;12.96;38.54
37852;BME280;23691;52.486;4.650;2023-04-04T12:09:02;102955.88;;;12.90;38.55
37852;BME280;23691;52.486;4.650;2023-04-04T12:11:29;102954.88;;;12.91;38.46
37852;BME280;23691;52.486;4.650;2023-04-04T12:13:55;102943.28;;;12.91;38.58
37852;BME280;23691;52.486;4.650;2023-04-04T12:16:21;102940.06;;;12.97;38.85
37852;BME280;23691;52.486;4.650;2023-04-04T12:18:48;102942.16;;;13.04;38.80
37852;BME280;23691;52.486;4.650;2023-04-04T12:21:13;102931.84;;;13.09;38.18
37852;BME280;23691;52.486;4.650;2023-04-04T12:23:39;102939.25;;;13.17;38.48
37852;BME280;23691;52.486;4.650;2023-04-04T12:26:06;102932.59;;;13.32;38.83
37852;BME280;23691;52.486;4.650;2023-04-04T12:28:34;102937.31;;;13.61;39.11
37852;BME280;23691;52.486;4.650;2023-04-04T12:31:00;102924.41;;;13.86;38.90
37852;BME280;23691;52.486;4.650;2023-04-04T12:33:32;102931.53;;;14.06;39.04
37852;BME280;23691;52.486;4.650;2023-04-04T12:36:01;102925.91;;;14.19;38.62
37852;BME280;23691;52.486;4.650;2023-04-04T12:38:30;102916.28;;;14.26;38.26
37852;BME280;23691;52.486;4.650;2023-04-04T12:40:56;102915.03;;;14.30;37.96
37852;BME280;23691;52.486;4.650;2023-04-04T12:43:24;102917.31;;;14.35;38.08
37852;BME280;23691;52.486;4.650;2023-04-04T12:45:53;102911.06;;;14.44;37.88
37852;BME280;23691;52.486;4.650;2023-04-04T12:48:26;102907.66;;;14.42;37.41
37852;BME280;23691;52.486;4.650;2023-04-04T12:50:57;102906.56;;;14.54;37.88
37852;BME280;23691;52.486;4.650;2023-04-04T12:53:24;102909.72;;;14.59;37.26
37852;BME280;23691;52.486;4.650;2023-04-04T12:55:50;102903.84;;;14.45;36.78
37852;BME280;23691;52.486;4.650;2023-04-04T12:58:20;102905.53;;;14.36;36.80
37852;BME280;23691;52.486;4.650;2023-04-04T13:00:49;102900.28;;;14.34;36.63
37852;BME280;23691;52.486;4.650;2023-04-04T13:03:15;102893.91;;;14.26;36.93
37852;BME280;23691;52.486;4.650;2023-04-04T13:05:42;102893.50;;;14.30;36.52
37852;BME280;23691;52.486;4.650;2023-04-04T13:08:08;102891.06;;;14.37;36.44
37852;BME280;23691;52.486;4.650;2023-04-04T13:11:10;102878.75;;;14.34;36.03
37852;BME280;23691;52.486;4.650;2023-04-04T13:13:40;102876.63;;;14.38;36.49
37852;BME280;23691;52.486;4.650;2023-04-04T13:16:31;102869.03;;;14.63;36.81
37852;BME280;23691;52.486;4.650;2023-04-04T13:19:00;102857.94;;;14.85;36.77
37852;BME280;23691;52.486;4.650;2023-04-04T13:21:25;102863.16;;;15.06;36.81